Time;durP1;ratioP1;P1;durP2;ratioP2;P2;SDS_P1;SDS_P2;PMS_P1;PMS_P2;Temp;Humidity;BMP_temperature;BMP_pressure;BME280_temperature;BME280_humidity;BME280_pressure;Samples;Min_cycle;Max_cycle;Signal;HPM_P1;HPM_P2
2023/06/18 00:01:11;;;;;;;;;;;24.20;43.30;;;24.33;31.89;98415.00;5024295;27;114356;-77
2023/06/18 00:03:37;;;;;;;;;;;24.20;43.40;;;24.27;31.68;98414.66;5032328;27;113767;-77
2023/06/18 00:06:03;;;;;;;;;;;24.10;43.40;;;24.24;31.79;98424.75;5029668;27;124091;-78
2023/06/18 00:08:32;;;;;;;;;;;24.10;43.40;;;24.20;31.89;98417.50;5023131;27;123657;-76
2023/06/18 00:10:59;;;;;;;;;;;24.00;43.40;;;24.18;31.92;98428.41;5027533;28;115400;-77
2023/06/18 00:13:25;;;;;;;;;;;24.00;43.50;;;24.15;31.99;98423.59;5030071;27;114430;-77
2023/06/18 00:15:54;;;;;;;;;;;24.00;43.60;;;24.11;32.00;98417.97;5010613;28;122879;-78
2023/06/18 00:18:21;;;;;;;;;;;23.90;43.60;;;24.09;32.12;98426.03;5024832;27;123996;-77
2023/06/18 00:20:48;;;;;;;;;;;23.90;44.00;;;24.07;32.02;98416.38;5010055;28;114489;-78
2023/06/18 00:23:15;;;;;;;;;;;23.90;43.80;;;24.04;32.21;98412.38;5027063;27;113864;-78
2023/06/18 00:25:42;;;;;;;;;;;23.80;43.80;;;24.01;31.99;98419.63;5021845;27;124146;-78
2023/06/18 00:28:08;;;;;;;;;;;23.80;43.80;;;23.99;31.84;98421.25;5029049;27;124616;-78
2023/06/18 00:30:34;;;;;;;;;;;23.80;43.60;;;23.96;31.84;98411.59;5029619;27;113207;-78
2023/06/18 00:33:01;;;;;;;;;;;23.70;43.60;;;23.94;31.92;98413.25;5022505;27;114056;-78
2023/06/18 00:35:27;;;;;;;;;;;23.70;43.60;;;23.92;31.57;98416.47;5024489;27;124330;-78
2023/06/18 00:37:54;;;;;;;;;;;23.70;43.60;;;23.89;31.93;98416.50;5015723;27;123740;-78
2023/06/18 00:40:20;;;;;;;;;;;23.70;43.60;;;23.85;32.14;98410.06;5025514;27;114054;-78
2023/06/18 00:42:48;;;;;;;;;;;23.70;43.70;;;23.83;31.90;98420.94;5036769;27;113877;-77
2023/06/18 00:45:16;;;;;;;;;;;23.60;43.60;;;23.79;31.97;98410.50;5021280;27;126917;-78
2023/06/18 00:47:44;;;;;;;;;;;23.60;43.70;;;23.76;32.09;98408.50;5028821;27;123538;-78
2023/06/18 00:50:14;;;;;;;;;;;23.50;43.70;;;23.73;32.01;98406.50;5023344;27;113610;-78
2023/06/18 00:52:44;;;;;;;;;;;23.50;43.70;;;23.70;31.87;98418.56;5025998;27;114164;-78
2023/06/18 00:55:16;;;;;;;;;;;23.50;43.70;;;23.66;32.08;98409.31;5024721;27;124173;-79
2023/06/18 00:57:49;;;;;;;;;;;23.40;43.70;;;23.62;32.12;98402.91;5006069;28;124092;-77
2023/06/18 01:00:21;;;;;;;;;;;23.40;43.70;;;23.58;32.20;98407.75;5027581;27;114957;-78
2023/06/18 01:02:53;;;;;;;;;;;23.40;43.70;;;23.54;32.21;98404.94;5004587;28;113678;-78
2023/06/18 01:05:20;;;;;;;;;;;23.30;43.70;;;23.52;32.10;98404.53;5003199;28;123561;-78
2023/06/18 01:07:49;;;;;;;;;;;23.30;43.80;;;23.50;32.32;98406.97;5030081;27;126273;-77
2023/06/18 01:10:17;;;;;;;;;;;23.30;43.90;;;23.47;32.07;98409.81;5035904;27;115063;-77
2023/06/18 01:12:46;;;;;;;;;;;23.30;43.90;;;23.45;32.35;98409.41;5026510;27;114316;-78
2023/06/18 01:15:18;;;;;;;;;;;23.20;44.00;;;23.41;32.28;98405.81;5029392;27;124727;-79
2023/06/18 01:17:49;;;;;;;;;;;23.20;44.10;;;23.36;32.37;98410.63;5029779;27;124287;-79
2023/06/18 01:20:17;;;;;;;;;;;23.20;44.00;;;23.32;32.63;98411.84;5042139;27;114380;-77
2023/06/18 01:22:52;;;;;;;;;;;23.10;44.00;;;23.30;32.71;98403.81;5037615;27;113894;-77
2023/06/18 01:25:19;;;;;;;;;;;23.10;44.10;;;23.27;32.39;98404.66;5038623;27;123913;-77
2023/06/18 01:27:50;;;;;;;;;;;23.10;44.20;;;23.25;32.44;98400.63;5038743;27;123798;-77
2023/06/18 01:30:16;;;;;;;;;;;23.00;44.20;;;23.22;32.83;98402.25;5040018;27;114580;-78
2023/06/18 01:32:43;;;;;;;;;;;23.00;44.40;;;23.20;32.59;98404.66;5031519;27;114385;-77
2023/06/18 01:35:15;;;;;;;;;;;23.00;44.40;;;23.18;32.87;98401.44;5026797;28;124542;-77
2023/06/18 01:38:01;;;;;;;;;;;23.00;44.40;;;23.14;32.64;98400.66;5026360;27;124561;-77
2023/06/18 01:40:32;;;;;;;;;;;22.90;44.30;;;23.10;32.77;98405.47;5020010;27;114651;-78
2023/06/18 01:43:11;;;;;;;;;;;22.90;44.40;;;23.07;32.80;98406.28;5036337;27;113787;-77
2023/06/18 01:45:57;;;;;;;;;;;22.90;44.40;;;23.05;33.09;98409.53;5020219;27;124881;-78
2023/06/18 01:48:25;;;;;;;;;;;24.30;45.80;;;23.03;33.02;98405.53;5029478;27;123137;-78
2023/06/18 01:50:52;;;;;;;;;;;22.80;44.50;;;22.99;33.14;98402.69;5026476;28;116084;-79
2023/06/18 01:53:21;;;;;;;;;;;22.80;44.50;;;22.98;32.97;98408.75;5025996;27;114824;-77
2023/06/18 01:55:50;;;;;;;;;;;22.70;44.50;;;22.97;33.11;98412.75;5025387;27;123993;-76
2023/06/18 01:58:16;;;;;;;;;;;22.70;45.30;;;22.93;33.08;98407.91;5026851;27;124170;-77
2023/06/18 02:00:42;;;;;;;;;;;22.70;44.70;;;22.89;33.26;98401.47;5008718;27;113454;-77
2023/06/18 02:03:09;;;;;;;;;;;22.70;44.80;;;22.88;33.29;98394.22;5024583;27;113073;-77
2023/06/18 02:05:35;;;;;;;;;;;22.60;44.80;;;22.88;33.27;98394.22;5026242;27;124932;-76
2023/06/18 02:08:02;;;;;;;;;;;22.60;45.00;;;22.86;33.45;98402.28;5027508;27;124271;-76
2023/06/18 02:10:28;;;;;;;;;;;22.60;45.00;;;22.85;33.33;98406.31;5026425;27;114288;-76
2023/06/18 02:12:54;;;;;;;;;;;22.60;45.10;;;22.82;33.39;98407.13;5040635;27;113785;-76
2023/06/18 02:15:21;;;;;;;;;;;22.60;45.20;;;22.79;33.28;98407.13;5028999;27;123755;-77
2023/06/18 02:17:47;;;;;;;;;;;22.60;45.30;;;22.77;33.56;98415.97;5025569;27;123958;-76
2023/06/18 02:20:14;;;;;;;;;;;22.50;45.30;;;22.76;33.63;98407.94;5027826;27;114464;-77
2023/06/18 02:22:40;;;;;;;;;;;22.50;45.40;;;22.73;33.80;98406.75;5040546;27;113891;-77
2023/06/18 02:25:07;;;;;;;;;;;22.50;45.40;;;22.71;33.84;98406.34;5025931;27;124104;-77
2023/06/18 02:27:33;;;;;;;;;;;22.50;45.60;;;22.69;33.85;98403.09;5028742;27;123281;-78
2023/06/18 02:30:01;;;;;;;;;;;22.40;45.60;;;22.67;33.58;98406.31;5009577;28;113665;-77
2023/06/18 02:32:28;;;;;;;;;;;22.40;45.60;;;22.64;33.72;98414.78;5018484;27;113841;-78
2023/06/18 02:34:55;;;;;;;;;;;22.40;45.60;;;22.63;34.10;98416.00;5024454;27;124298;-78
2023/06/18 02:37:21;;;;;;;;;;;22.40;45.70;;;22.61;34.13;98413.56;5026508;27;122869;-77
2023/06/18 02:39:47;;;;;;;;;;;22.40;45.80;;;22.58;33.94;98416.41;5001429;27;114756;-77
2023/06/18 02:42:14;;;;;;;;;;;22.30;45.70;;;22.56;33.94;98411.16;5014614;27;114800;-77
2023/06/18 02:44:42;;;;;;;;;;;22.30;45.80;;;22.54;34.13;98413.59;5023601;27;124433;-76
2023/06/18 02:47:09;;;;;;;;;;;22.30;45.80;;;22.52;34.14;98401.91;5030066;27;122739;-76
2023/06/18 02:49:35;;;;;;;;;;;22.30;45.80;;;22.49;33.90;98400.72;5029906;27;114350;-76
2023/06/18 02:52:02;;;;;;;;;;;22.30;45.80;;;22.47;33.81;98396.69;5026431;27;114496;-77
2023/06/18 02:54:28;;;;;;;;;;;22.20;45.90;;;22.44;33.91;98400.31;5017906;27;124348;-79
2023/06/18 02:56:54;;;;;;;;;;;22.20;46.00;;;22.43;34.30;98407.13;5029629;27;123667;-80
2023/06/18 02:59:20;;;;;;;;;;;22.20;46.00;;;22.39;34.49;98407.13;5040040;27;114299;-78
2023/06/18 03:01:48;;;;;;;;;;;22.20;46.10;;;22.37;34.57;98409.53;5036326;27;113845;-78
2023/06/18 03:04:14;;;;;;;;;;;22.10;46.10;;;22.35;34.34;98406.31;5017098;27;124423;-79
2023/06/18 03:06:40;;;;;;;;;;;22.10;46.20;;;22.33;34.53;98408.75;5029974;27;123842;-78
2023/06/18 03:09:08;;;;;;;;;;;22.10;46.40;;;22.30;34.43;98403.09;5039972;27;115136;-80
2023/06/18 03:11:34;;;;;;;;;;;22.10;46.40;;;22.26;34.47;98409.53;5021505;27;114347;-80
2023/06/18 03:14:01;;;;;;;;;;;22.00;46.40;;;22.23;34.50;98410.34;5025817;27;123936;-80
2023/06/18 03:16:30;;;;;;;;;;;22.00;46.50;;;22.21;34.81;98409.13;5031843;27;124277;-79
2023/06/18 03:18:56;;;;;;;;;;;22.00;46.60;;;22.19;34.82;98414.34;5025792;27;114258;-79
2023/06/18 03:21:23;;;;;;;;;;;21.90;46.50;;;22.17;34.87;98405.47;5024951;27;113788;-79
2023/06/18 03:23:49;;;;;;;;;;;21.90;46.50;;;22.15;34.66;98414.31;5028528;27;124228;-80
2023/06/18 03:26:16;;;;;;;;;;;21.90;46.50;;;22.15;34.62;98417.13;5027805;27;124093;-79
2023/06/18 03:28:42;;;;;;;;;;;21.90;46.50;;;22.13;34.76;98410.28;5028809;27;114600;-79
2023/06/18 03:31:11;;;;;;;;;;;21.90;46.50;;;22.11;34.73;98419.16;5030787;27;114640;-78
2023/06/18 03:33:37;;;;;;;;;;;21.80;46.50;;;22.09;34.65;98415.13;5037725;27;124581;-79
2023/06/18 03:36:05;;;;;;;;;;;21.80;46.60;;;22.08;34.58;98416.31;5033461;27;123780;-77
2023/06/18 03:38:32;;;;;;;;;;;21.80;46.60;;;22.03;34.81;98414.69;5025828;27;114559;-79
2023/06/18 03:40:58;;;;;;;;;;;21.80;46.70;;;22.01;34.73;98414.31;5029182;27;114575;-79
2023/06/18 03:43:24;;;;;;;;;;;21.80;46.80;;;21.99;35.02;98416.69;5027635;27;123220;-77
2023/06/18 03:45:50;;;;;;;;;;;21.70;46.80;;;21.97;34.78;98417.09;5005278;28;122878;-79
2023/06/18 03:48:17;;;;;;;;;;;21.70;46.90;;;21.98;35.12;98424.34;5028294;27;113601;-78
2023/06/18 03:50:43;;;;;;;;;;;21.70;46.90;;;22.00;35.06;98423.91;5009478;27;114121;-79
2023/06/18 03:53:09;;;;;;;;;;;21.70;47.00;;;22.01;35.07;98420.72;5009391;28;124265;-79
2023/06/18 03:55:36;;;;;;;;;;;21.70;47.10;;;22.01;34.94;98423.53;5027082;27;123406;-79
2023/06/18 03:58:02;;;;;;;;;;;21.70;47.10;;;22.00;35.42;98427.56;5031449;27;113898;-79
2023/06/18 04:00:29;;;;;;;;;;;21.70;47.20;;;22.00;35.03;98423.91;5029417;27;113653;-78
2023/06/18 04:02:55;;;;;;;;;;;21.80;47.40;;;22.04;35.05;98428.38;5031420;27;123776;-79
2023/06/18 04:05:24;;;;;;;;;;;21.70;47.30;;;22.05;35.16;98426.34;5018221;28;123884;-78
2023/06/18 04:07:53;;;;;;;;;;;21.90;47.60;;;22.03;35.10;98426.75;5029404;27;114632;-78
2023/06/18 04:10:19;;;;;;;;;;;21.70;47.30;;;22.01;35.18;98417.91;5030058;27;114500;-79
2023/06/18 04:12:45;;;;;;;;;;;21.70;47.40;;;21.99;35.35;98425.94;5032979;27;124449;-78
2023/06/18 04:15:12;;;;;;;;;;;21.70;47.40;;;21.98;35.18;98424.34;5022004;27;122830;-78
2023/06/18 04:17:39;;;;;;;;;;;21.70;47.40;;;21.98;35.33;98432.78;5007992;27;114618;-78
2023/06/18 04:20:07;;;;;;;;;;;21.70;47.80;;;21.98;35.57;98426.34;5028417;27;114603;-78
2023/06/18 04:22:34;;;;;;;;;;;21.70;48.00;;;21.95;35.62;98427.94;5019905;27;124448;-78
2023/06/18 04:25:00;;;;;;;;;;;21.60;47.90;;;21.94;35.73;98425.53;5016498;27;123039;-79
2023/06/18 04:27:26;;;;;;;;;;;21.60;48.10;;;21.94;35.86;98434.75;5031886;27;113772;-77
2023/06/18 04:29:55;;;;;;;;;;;21.60;48.20;;;21.97;35.96;98430.34;5016730;27;113349;-80
2023/06/18 04:32:21;;;;;;;;;;;21.60;48.40;;;21.99;36.21;98423.13;5032577;27;123951;-79
2023/06/18 04:34:47;;;;;;;;;;;21.60;48.60;;;21.99;36.32;98425.94;5042456;27;123805;-80
2023/06/18 04:37:14;;;;;;;;;;;21.70;48.90;;;21.99;36.56;98434.38;5026119;28;114481;-80
2023/06/18 04:39:40;;;;;;;;;;;21.70;48.90;;;22.01;36.82;98431.19;5026484;27;113817;-81
2023/06/18 04:42:07;;;;;;;;;;;21.70;49.00;;;22.01;36.57;98426.34;5045553;27;124251;-78
2023/06/18 04:44:33;;;;;;;;;;;21.70;49.10;;;22.00;36.39;98419.13;5024892;27;124081;-80
2023/06/18 04:47:00;;;;;;;;;;;21.70;49.20;;;22.02;36.93;98418.72;5026278;27;113820;-78
2023/06/18 04:49:26;;;;;;;;;;;21.70;49.30;;;22.03;36.97;98418.31;5027836;27;113927;-78
2023/06/18 04:51:52;;;;;;;;;;;21.70;49.50;;;22.05;36.97;98417.91;5000011;27;123552;-77
2023/06/18 04:54:18;;;;;;;;;;;21.70;49.80;;;22.04;37.17;98414.28;5028562;27;123808;-78
2023/06/18 04:56:45;;;;;;;;;;;21.70;49.70;;;22.04;37.23;98419.13;5012983;28;113817;-78
2023/06/18 04:59:11;;;;;;;;;;;21.70;49.80;;;22.05;37.25;98420.72;5026014;27;112859;-78
2023/06/18 05:01:37;;;;;;;;;;;21.70;49.80;;;22.04;36.85;98419.13;5022702;28;124231;-78
2023/06/18 05:04:04;;;;;;;;;;;21.70;49.90;;;22.03;37.09;98418.31;5024014;27;123909;-79
2023/06/18 05:06:31;;;;;;;;;;;21.70;49.80;;;22.03;37.27;98414.69;5036647;27;115421;-78
2023/06/18 05:08:57;;;;;;;;;;;21.70;49.90;;;22.04;37.17;98411.47;5026110;27;113981;-78
2023/06/18 05:11:23;;;;;;;;;;;21.70;50.00;;;22.08;37.03;98419.13;5022153;28;124301;-78
2023/06/18 05:13:49;;;;;;;;;;;21.70;50.00;;;22.10;37.04;98411.09;5023716;27;123777;-79
2023/06/18 05:16:16;;;;;;;;;;;21.70;50.00;;;22.10;37.04;98419.53;5026484;27;114408;-79
2023/06/18 05:18:42;;;;;;;;;;;21.80;50.00;;;22.12;37.46;98405.88;5027190;27;112797;-79
2023/06/18 05:21:08;;;;;;;;;;;21.80;50.10;;;22.13;37.11;98411.09;5022950;27;124426;-78
2023/06/18 05:23:35;;;;;;;;;;;21.80;50.10;;;22.14;37.01;98418.34;5009219;27;123488;-79
2023/06/18 05:26:01;;;;;;;;;;;21.80;50.10;;;22.17;37.02;98402.66;5017620;27;114684;-78
2023/06/18 05:28:27;;;;;;;;;;;21.80;50.20;;;22.18;37.31;98407.91;5009229;27;113640;-79
2023/06/18 05:30:53;;;;;;;;;;;21.80;50.40;;;22.18;37.47;98412.72;5011109;27;124107;-78
2023/06/18 05:33:22;;;;;;;;;;;21.80;50.50;;;22.19;37.66;98414.34;5015173;27;125289;-77
2023/06/18 05:35:48;;;;;;;;;;;21.80;50.60;;;22.18;37.38;98415.53;5023248;27;113691;-78
2023/06/18 05:38:15;;;;;;;;;;;21.80;50.50;;;22.19;37.34;98419.97;5009842;27;113174;-78
2023/06/18 05:40:41;;;;;;;;;;;21.80;50.50;;;22.19;37.45;98415.16;5008041;28;124108;-78
2023/06/18 05:43:07;;;;;;;;;;;21.80;50.50;;;22.23;37.03;98424.41;5010764;27;123833;-79
2023/06/18 05:45:34;;;;;;;;;;;21.80;50.50;;;22.26;37.63;98420.78;5026038;27;114421;-77
2023/06/18 05:48:00;;;;;;;;;;;21.90;50.80;;;22.25;37.46;98426.84;5027408;27;113939;-79
2023/06/18 05:50:27;;;;;;;;;;;21.90;50.80;;;22.25;37.48;98424.03;5011261;27;124173;-78
2023/06/18 05:52:53;;;;;;;;;;;21.90;50.80;;;22.30;37.47;98425.63;5023745;27;123198;-79
2023/06/18 05:55:20;;;;;;;;;;;21.90;50.70;;;22.34;36.96;98432.88;5024123;27;115596;-78
2023/06/18 05:57:50;;;;;;;;;;;22.00;50.70;;;22.37;37.18;98426.44;5036616;27;114745;-79
2023/06/18 06:00:16;;;;;;;;;;;21.90;50.60;;;22.41;37.27;98432.88;5048031;27;124202;-77
2023/06/18 06:02:44;;;;;;;;;;;22.00;50.60;;;22.47;37.25;98431.28;5023980;28;123401;-77
2023/06/18 06:05:10;;;;;;;;;;;22.00;50.70;;;22.51;37.22;98436.88;5025832;27;114795;-78
2023/06/18 06:07:39;;;;;;;;;;;22.00;50.80;;;22.57;37.28;98434.47;5010518;27;112749;-78
2023/06/18 06:10:06;;;;;;;;;;;22.10;50.80;;;22.65;37.08;98442.53;5024436;27;123507;-79
2023/06/18 06:12:32;;;;;;;;;;;22.10;50.80;;;22.74;37.04;98430.88;5025393;27;124032;-78
2023/06/18 06:14:58;;;;;;;;;;;22.20;50.90;;;22.85;36.81;98430.84;5022608;27;114378;-79
2023/06/18 06:17:25;;;;;;;;;;;22.30;50.90;;;22.95;36.99;98427.22;5020063;27;113651;-79
2023/06/18 06:19:51;;;;;;;;;;;22.40;51.10;;;23.02;36.89;98426.44;5011046;27;124710;-79
2023/06/18 06:22:17;;;;;;;;;;;22.40;51.00;;;23.03;36.62;98422.41;5018942;28;123833;-79
2023/06/18 06:24:43;;;;;;;;;;;22.40;50.90;;;23.03;36.62;98430.88;5023792;27;114550;-79
2023/06/18 06:27:10;;;;;;;;;;;22.50;50.70;;;23.03;36.72;98431.69;5024185;27;113146;-78
2023/06/18 06:29:36;;;;;;;;;;;22.50;50.60;;;23.08;36.71;98431.28;5029776;27;123595;-77
2023/06/18 06:32:03;;;;;;;;;;;22.50;50.60;;;23.14;36.79;98424.00;5036708;27;122842;-77
2023/06/18 06:34:31;;;;;;;;;;;22.60;50.70;;;23.26;36.63;98419.94;5013322;28;114575;-78
2023/06/18 06:36:57;;;;;;;;;;;22.70;50.70;;;23.29;36.62;98429.59;5024340;27;112746;-78
2023/06/18 06:39:24;;;;;;;;;;;22.70;50.80;;;23.31;36.82;98421.53;5002136;28;123890;-78
2023/06/18 06:41:50;;;;;;;;;;;22.70;50.80;;;23.37;36.74;98414.25;5010986;27;124244;-78
2023/06/18 06:44:16;;;;;;;;;;;22.80;51.10;;;23.44;36.81;98424.72;5014657;27;115333;-78
2023/06/18 06:46:43;;;;;;;;;;;22.80;51.20;;;23.50;36.82;98423.09;5021462;27;114619;-77
2023/06/18 06:49:10;;;;;;;;;;;22.90;51.20;;;23.56;36.63;98424.25;5009138;27;124136;-78
2023/06/18 06:51:37;;;;;;;;;;;23.00;51.30;;;23.58;36.98;98421.84;5021326;27;124074;-77
2023/06/18 06:54:05;;;;;;;;;;;23.00;51.30;;;23.62;36.72;98422.66;5029644;27;113432;-77
2023/06/18 06:56:32;;;;;;;;;;;23.10;51.30;;;23.69;36.70;98424.63;5010807;28;113535;-77
2023/06/18 06:58:58;;;;;;;;;;;23.10;51.00;;;23.75;36.53;98423.81;5021892;27;124125;-77
2023/06/18 07:01:24;;;;;;;;;;;23.20;51.10;;;23.81;36.43;98427.81;5019285;28;124104;-77
2023/06/18 07:03:53;;;;;;;;;;;23.20;51.00;;;23.88;36.17;98417.69;5025990;28;114460;-77
2023/06/18 07:06:19;;;;;;;;;;;23.30;51.00;;;23.98;36.14;98419.66;5025629;28;113799;-77
2023/06/18 07:08:46;;;;;;;;;;;23.30;50.90;;;24.07;35.65;98420.00;5038532;27;124615;-77
2023/06/18 07:11:12;;;;;;;;;;;23.40;50.70;;;24.18;36.02;98409.47;4999394;27;124098;-76
2023/06/18 07:13:38;;;;;;;;;;;23.50;50.60;;;24.29;35.86;98417.03;5014299;28;114744;-76
2023/06/18 07:16:05;;;;;;;;;;;23.60;50.70;;;24.36;35.95;98417.00;5027626;27;115205;-76
2023/06/18 07:18:31;;;;;;;;;;;23.70;50.60;;;24.40;35.37;98429.09;5025050;27;124392;-76
2023/06/18 07:20:57;;;;;;;;;;;23.70;50.30;;;24.46;35.46;98425.41;5014415;27;124355;-77
2023/06/18 07:23:24;;;;;;;;;;;23.80;50.10;;;24.50;35.25;98422.56;5012868;27;114346;-76
2023/06/18 07:25:50;;;;;;;;;;;23.90;50.10;;;24.57;35.46;98427.38;5027023;27;112720;-76
2023/06/18 07:28:16;;;;;;;;;;;24.00;50.10;;;24.63;35.27;98434.97;5008382;27;123360;-77
2023/06/18 07:30:42;;;;;;;;;;;24.00;50.00;;;24.70;35.04;98425.63;5010756;28;123765;-77
2023/06/18 07:33:09;;;;;;;;;;;24.10;49.90;;;24.79;34.98;98416.66;5018831;27;114335;-76
2023/06/18 07:35:35;;;;;;;;;;;24.10;49.80;;;24.89;34.79;98410.13;5021086;27;114542;-77
2023/06/18 07:38:01;;;;;;;;;;;24.20;49.80;;;25.00;34.46;98418.50;5034938;27;123688;-76
2023/06/18 07:40:33;;;;;;;;;;;24.30;49.50;;;25.07;34.33;98413.59;5003719;28;122672;-77
2023/06/18 07:43:01;;;;;;;;;;;24.40;49.30;;;25.16;34.29;98421.59;5029767;27;114734;-77
2023/06/18 07:45:27;;;;;;;;;;;24.50;49.10;;;25.24;33.95;98414.63;5008529;28;113098;-76
2023/06/18 07:47:53;;;;;;;;;;;24.60;48.90;;;25.34;34.25;98412.91;5024350;27;124728;-79
2023/06/18 07:50:21;;;;;;;;;;;24.70;48.80;;;25.44;34.03;98417.66;5019567;27;123754;-77
2023/06/18 07:52:47;;;;;;;;;;;24.80;48.80;;;25.54;33.58;98413.06;5034585;27;114527;-77
2023/06/18 07:55:16;;;;;;;;;;;24.90;48.60;;;25.62;33.93;98410.97;5029910;27;113812;-77
2023/06/18 07:57:43;;;;;;;;;;;25.00;48.40;;;25.69;33.56;98410.88;5006748;28;123756;-77
2023/06/18 08:00:10;;;;;;;;;;;25.10;48.20;;;25.77;33.73;98412.41;5027445;27;123994;-78
2023/06/18 08:02:36;;;;;;;;;;;25.10;48.30;;;25.82;33.69;98409.09;5039123;27;114649;-76
2023/06/18 08:05:04;;;;;;;;;;;25.20;48.20;;;25.89;33.40;98411.84;5029668;27;112822;-76
2023/06/18 08:07:30;;;;;;;;;;;25.30;48.00;;;25.96;33.11;98411.75;5034079;27;124764;-79
2023/06/18 08:09:57;;;;;;;;;;;25.30;47.70;;;26.03;32.82;98395.88;5036788;27;122992;-80
2023/06/18 08:12:23;;;;;;;;;;;25.40;47.70;;;26.08;32.96;98403.91;5028149;27;114530;-81
2023/06/18 08:14:49;;;;;;;;;;;25.50;47.40;;;26.15;32.73;98398.13;5029038;27;113682;-80
2023/06/18 08:17:17;;;;;;;;;;;25.60;47.40;;;26.20;32.82;98400.50;5028330;27;123369;-81
2023/06/18 08:19:45;;;;;;;;;;;25.60;47.20;;;26.29;32.54;98399.94;5028153;27;124638;-80
2023/06/18 08:22:12;;;;;;;;;;;25.70;47.50;;;26.37;32.37;98392.94;5016954;27;115629;-80
2023/06/18 08:24:38;;;;;;;;;;;25.80;47.10;;;26.46;32.89;98396.03;5027142;27;114916;-81
2023/06/18 08:27:07;;;;;;;;;;;25.90;47.30;;;26.58;32.09;98403.16;5022618;27;123981;-80
2023/06/18 08:29:33;;;;;;;;;;;26.00;47.20;;;26.70;31.94;98394.03;5027463;27;122951;-81
2023/06/18 08:32:04;;;;;;;;;;;26.10;46.90;;;26.82;31.22;98399.09;5027640;27;114365;-80
2023/06/18 08:34:32;;;;;;;;;;;26.20;46.30;;;26.91;30.98;98400.56;5017339;27;112865;-80
2023/06/18 08:36:59;;;;;;;;;;;26.30;46.10;;;27.00;31.20;98395.13;5021272;27;124391;-80
2023/06/18 08:39:26;;;;;;;;;;;26.30;45.70;;;27.08;30.80;98390.91;5016800;27;122254;-80
2023/06/18 08:41:54;;;;;;;;;;;26.40;45.50;;;27.15;30.48;98390.78;5035633;27;113526;-80
2023/06/18 08:44:25;;;;;;;;;;;26.50;45.20;;;27.22;30.91;98389.91;5020220;28;112028;-78
2023/06/18 08:47:00;;;;;;;;;;;26.60;45.30;;;27.31;30.23;98382.38;5025723;27;124514;-80
2023/06/18 08:49:27;;;;;;;;;;;26.60;44.40;;;27.37;29.29;98385.50;5018318;27;124043;-80
2023/06/18 08:51:56;;;;;;;;;;;26.70;43.40;;;27.46;29.23;98376.44;5024038;27;114476;-79
2023/06/18 08:54:25;;;;;;;;;;;26.80;43.40;;;27.52;29.02;98384.00;5043626;27;113399;-80
2023/06/18 08:56:55;;;;;;;;;;;26.90;42.90;;;27.60;28.88;98381.03;5020267;27;124640;-79
2023/06/18 08:59:22;;;;;;;;;;;27.00;42.40;;;27.66;28.82;98382.09;5032268;27;124524;-80
2023/06/18 09:01:49;;;;;;;;;;;27.10;42.20;;;27.73;27.43;98371.38;5015141;27;114241;-80
2023/06/18 09:04:16;;;;;;;;;;;27.10;41.00;;;27.80;27.26;98366.78;5018133;27;113722;-83
2023/06/18 09:06:42;;;;;;;;;;;27.20;40.50;;;27.87;26.65;98369.50;5022104;27;123427;-81
2023/06/18 09:09:09;;;;;;;;;;;27.20;40.00;;;27.92;26.05;98369.78;5032334;27;123714;-81
2023/06/18 09:11:35;;;;;;;;;;;27.30;38.70;;;27.97;25.46;98372.09;5029504;28;114693;-81
2023/06/18 09:14:04;;;;;;;;;;;27.30;37.50;;;28.04;24.79;98364.66;5028763;27;114620;-81
2023/06/18 09:16:32;;;;;;;;;;;27.40;37.00;;;28.10;24.09;98369.38;5016518;28;124027;-81
2023/06/18 09:19:01;;;;;;;;;;;27.50;36.30;;;28.14;23.22;98372.91;5028151;27;123694;-81
2023/06/18 09:21:40;;;;;;;;;;;27.50;34.70;;;28.14;23.33;98370.09;5025412;27;113487;-81
2023/06/18 09:24:19;;;;;;;;;;;27.50;34.80;;;28.15;23.60;98371.66;5027562;27;113698;-81
2023/06/18 09:26:47;;;;;;;;;;;27.60;34.70;;;28.22;23.26;98375.59;5007402;28;124090;-81
2023/06/18 09:29:14;;;;;;;;;;;27.60;34.10;;;28.27;22.97;98361.66;5042947;27;124636;-80
2023/06/18 09:31:47;;;;;;;;;;;27.70;34.10;;;28.33;23.07;98359.88;5015930;27;114516;-82
2023/06/18 09:34:15;;;;;;;;;;;27.80;34.40;;;28.38;22.99;98356.50;5011415;28;114014;-82
2023/06/18 09:36:43;;;;;;;;;;;27.80;34.00;;;28.44;21.99;98359.66;5009034;27;125018;-82
2023/06/18 09:39:17;;;;;;;;;;;27.80;32.80;;;28.48;22.33;98351.03;5013196;27;124686;-82
2023/06/18 09:41:44;;;;;;;;;;;27.90;33.10;;;28.54;22.10;98347.22;5025572;27;114589;-82
2023/06/18 09:44:14;;;;;;;;;;;27.90;33.10;;;28.59;22.28;98348.72;5021137;27;113754;-82
2023/06/18 09:46:59;;;;;;;;;;;28.00;32.90;;;28.61;22.37;98341.34;5025056;27;125989;-80
2023/06/18 09:49:27;;;;;;;;;;;28.00;33.00;;;28.68;22.44;98345.25;5027687;27;123912;-87
2023/06/18 09:51:54;;;;;;;;;;;28.10;33.30;;;28.74;22.45;98352.00;5015978;27;114391;-87
2023/06/18 09:54:21;;;;;;;;;;;28.20;33.10;;;28.77;22.62;98346.19;5018381;27;114351;-88
2023/06/18 09:57:02;;;;;;;;;;;28.20;33.10;;;28.83;22.44;98338.75;5027233;27;124085;-87
2023/06/18 09:59:28;;;;;;;;;;;28.30;33.30;;;28.90;22.27;98340.56;5013646;27;124313;-88
2023/06/18 10:01:55;;;;;;;;;;;28.40;33.00;;;28.91;22.21;98330.00;5025946;27;115445;-88
2023/06/18 10:04:25;;;;;;;;;;;28.40;32.50;;;28.94;22.20;98329.91;5027707;27;114891;-89
2023/06/18 10:06:56;;;;;;;;;;;28.50;32.90;;;28.99;22.30;98337.09;5013781;27;123894;-88
2023/06/18 10:09:32;;;;;;;;;;;28.50;32.80;;;29.03;21.81;98340.63;5040781;27;124430;-88
2023/06/18 10:12:02;;;;;;;;;;;28.50;32.20;;;29.05;22.06;98336.13;5021496;27;114554;-88
2023/06/18 10:14:30;;;;;;;;;;;28.60;32.60;;;29.10;21.69;98322.59;5029249;27;113654;-88
2023/06/18 10:17:08;;;;;;;;;;;28.60;32.20;;;29.09;21.59;98323.84;5038226;27;124071;-87
2023/06/18 10:19:47;;;;;;;;;;;28.60;31.10;;;29.09;21.88;98318.94;5027135;27;124227;-86
2023/06/18 10:22:15;;;;;;;;;;;28.70;32.10;;;29.15;21.62;98322.03;5016065;27;114805;-86
2023/06/18 10:24:46;;;;;;;;;;;28.70;31.70;;;29.19;21.44;98319.91;5031172;27;112870;-86
2023/06/18 10:27:14;;;;;;;;;;;28.70;31.40;;;29.24;20.92;98325.84;5026560;27;124157;-86
2023/06/18 10:29:41;;;;;;;;;;;28.70;31.00;;;29.29;21.46;98324.50;5024931;27;124597;-83
2023/06/18 10:32:07;;;;;;;;;;;28.80;31.30;;;29.29;20.88;98324.50;5027396;27;113698;-79
2023/06/18 10:34:34;;;;;;;;;;;28.80;31.10;;;29.31;21.38;98313.44;5019367;27;113661;-82
2023/06/18 10:37:01;;;;;;;;;;;28.80;31.10;;;29.36;21.27;98320.63;5007165;28;123206;-76
2023/06/18 10:39:28;;;;;;;;;;;28.90;31.30;;;29.40;20.98;98310.75;5013198;28;124237;-82
2023/06/18 10:42:04;;;;;;;;;;;28.90;31.00;;;29.43;21.11;98307.00;5026097;27;114652;-80
2023/06/18 10:44:55;;;;;;;;;;;29.00;30.80;;;29.43;21.06;98315.53;5019195;27;113789;-77
2023/06/18 10:47:25;;;;;;;;;;;29.00;30.60;;;29.54;21.41;98314.41;5028509;27;125219;-75
2023/06/18 10:50:06;;;;;;;;;;;29.90;32.10;;;29.61;21.55;98308.50;5003475;27;123514;-75
2023/06/18 10:52:36;;;;;;;;;;;29.10;32.50;;;29.67;21.00;98306.72;5021291;27;115701;-75
2023/06/18 10:55:17;;;;;;;;;;;29.20;31.20;;;29.70;20.88;98294.41;5030332;27;114504;-81
2023/06/18 10:57:45;;;;;;;;;;;29.20;30.90;;;29.73;21.26;98299.19;5033559;27;122616;-79
2023/06/18 11:00:18;;;;;;;;;;;29.30;31.00;;;29.77;21.02;98299.91;5029383;27;124440;-80
2023/06/18 11:02:46;;;;;;;;;;;29.30;30.60;;;29.80;20.64;98293.28;5018032;27;114945;-77
2023/06/18 11:05:41;;;;;;;;;;;29.40;30.60;;;29.84;20.37;98293.97;5020453;27;113811;-77
2023/06/18 11:08:11;;;;;;;;;;;29.40;30.40;;;29.88;20.91;98288.16;5032636;27;124162;-77
2023/06/18 11:10:42;;;;;;;;;;;29.40;30.30;;;29.93;20.63;98285.53;5025719;27;124158;-79
2023/06/18 11:13:09;;;;;;;;;;;29.50;30.50;;;29.99;20.58;98279.28;5039741;27;114040;-77